sensor_id;sensor_type;location;lat;lon;timestamp;P1;durP1;ratioP1;P2;durP2;ratioP2
78610;SDS011;67932;50.474;4.436;2023-07-31T00:01:11;11.38;;;3.92;;
78610;SDS011;67932;50.474;4.436;2023-07-31T00:03:37;9.77;;;3.00;;
78610;SDS011;67932;50.474;4.436;2023-07-31T00:06:04;10.18;;;3.03;;
78610;SDS011;67932;50.474;4.436;2023-07-31T00:08:30;7.50;;;3.03;;
78610;SDS011;67932;50.474;4.436;2023-07-31T00:10:58;6.95;;;2.75;;
78610;SDS011;67932;50.474;4.436;2023-07-31T00:13:24;10.07;;;3.60;;
78610;SDS011;67932;50.474;4.436;2023-07-31T00:15:50;9.98;;;2.90;;
78610;SDS011;67932;50.474;4.436;2023-07-31T00:18:16;6.50;;;3.20;;
78610;SDS011;67932;50.474;4.436;2023-07-31T00:20:43;7.60;;;2.78;;
78610;SDS011;67932;50.474;4.436;2023-07-31T00:23:09;7.90;;;2.92;;
78610;SDS011;67932;50.474;4.436;2023-07-31T00:25:35;6.15;;;2.70;;
78610;SDS011;67932;50.474;4.436;2023-07-31T00:28:01;7.65;;;2.83;;
78610;SDS011;67932;50.474;4.436;2023-07-31T00:30:28;6.30;;;2.83;;
78610;SDS011;67932;50.474;4.436;2023-07-31T00:32:54;6.88;;;3.22;;
78610;SDS011;67932;50.474;4.436;2023-07-31T00:35:20;8.13;;;3.90;;
78610;SDS011;67932;50.474;4.436;2023-07-31T00:37:46;9.13;;;3.13;;
78610;SDS011;67932;50.474;4.436;2023-07-31T00:40:13;8.40;;;3.25;;
78610;SDS011;67932;50.474;4.436;2023-07-31T00:42:39;5.15;;;2.80;;
78610;SDS011;67932;50.474;4.436;2023-07-31T00:45:05;7.38;;;3.22;;
78610;SDS011;67932;50.474;4.436;2023-07-31T00:47:32;10.60;;;3.60;;
78610;SDS011;67932;50.474;4.436;2023-07-31T00:49:58;6.82;;;2.80;;
78610;SDS011;67932;50.474;4.436;2023-07-31T00:52:24;7.85;;;2.70;;
78610;SDS011;67932;50.474;4.436;2023-07-31T00:54:51;7.40;;;2.63;;
78610;SDS011;67932;50.474;4.436;2023-07-31T00:57:17;6.82;;;3.03;;
78610;SDS011;67932;50.474;4.436;2023-07-31T00:59:43;7.32;;;3.55;;
78610;SDS011;67932;50.474;4.436;2023-07-31T01:02:11;9.82;;;2.83;;
78610;SDS011;67932;50.474;4.436;2023-07-31T01:04:38;7.22;;;3.08;;
78610;SDS011;67932;50.474;4.436;2023-07-31T01:07:08;9.20;;;3.20;;
78610;SDS011;67932;50.474;4.436;2023-07-31T01:12:17;8.55;;;3.10;;
78610;SDS011;67932;50.474;4.436;2023-07-31T01:14:51;9.60;;;3.42;;
78610;SDS011;67932;50.474;4.436;2023-07-31T01:17:27;6.90;;;3.75;;
78610;SDS011;67932;50.474;4.436;2023-07-31T01:19:54;7.15;;;3.10;;
78610;SDS011;67932;50.474;4.436;2023-07-31T01:25:27;7.13;;;2.70;;
78610;SDS011;67932;50.474;4.436;2023-07-31T01:28:19;5.60;;;2.70;;
78610;SDS011;67932;50.474;4.436;2023-07-31T01:30:49;4.97;;;2.50;;
78610;SDS011;67932;50.474;4.436;2023-07-31T01:33:16;4.53;;;2.50;;
78610;SDS011;67932;50.474;4.436;2023-07-31T01:35:46;6.18;;;2.55;;
78610;SDS011;67932;50.474;4.436;2023-07-31T01:40:43;4.85;;;2.30;;
78610;SDS011;67932;50.474;4.436;2023-07-31T01:43:10;5.95;;;2.30;;
78610;SDS011;67932;50.474;4.436;2023-07-31T01:45:36;6.78;;;2.60;;
78610;SDS011;67932;50.474;4.436;2023-07-31T01:48:02;7.40;;;2.42;;
78610;SDS011;67932;50.474;4.436;2023-07-31T01:50:28;5.97;;;2.25;;
78610;SDS011;67932;50.474;4.436;2023-07-31T01:52:56;5.57;;;2.72;;
78610;SDS011;67932;50.474;4.436;2023-07-31T01:55:22;5.30;;;2.47;;
78610;SDS011;67932;50.474;4.436;2023-07-31T01:57:48;6.07;;;2.35;;
78610;SDS011;67932;50.474;4.436;2023-07-31T02:00:15;5.43;;;2.38;;
78610;SDS011;67932;50.474;4.436;2023-07-31T02:02:41;5.82;;;2.35;;
78610;SDS011;67932;50.474;4.436;2023-07-31T02:05:07;5.95;;;2.28;;
78610;SDS011;67932;50.474;4.436;2023-07-31T02:07:34;7.13;;;2.58;;
78610;SDS011;67932;50.474;4.436;2023-07-31T02:10:00;4.38;;;2.38;;
78610;SDS011;67932;50.474;4.436;2023-07-31T02:12:26;5.97;;;2.00;;
78610;SDS011;67932;50.474;4.436;2023-07-31T02:14:55;5.30;;;1.95;;
78610;SDS011;67932;50.474;4.436;2023-07-31T02:17:21;4.35;;;2.17;;
78610;SDS011;67932;50.474;4.436;2023-07-31T02:19:48;4.97;;;2.28;;
78610;SDS011;67932;50.474;4.436;2023-07-31T02:22:14;5.18;;;2.38;;
78610;SDS011;67932;50.474;4.436;2023-07-31T02:24:40;5.63;;;2.08;;
78610;SDS011;67932;50.474;4.436;2023-07-31T02:27:06;5.63;;;2.33;;
78610;SDS011;67932;50.474;4.436;2023-07-31T02:29:33;5.15;;;2.30;;
78610;SDS011;67932;50.474;4.436;2023-07-31T02:31:59;4.40;;;2.50;;
78610;SDS011;67932;50.474;4.436;2023-07-31T02:34:25;5.55;;;2.60;;
78610;SDS011;67932;50.474;4.436;2023-07-31T02:36:51;6.05;;;1.95;;
78610;SDS011;67932;50.474;4.436;2023-07-31T02:39:18;4.65;;;2.08;;
78610;SDS011;67932;50.474;4.436;2023-07-31T02:41:44;5.93;;;2.40;;
78610;SDS011;67932;50.474;4.436;2023-07-31T02:44:10;7.25;;;2.30;;
78610;SDS011;67932;50.474;4.436;2023-07-31T02:46:39;6.25;;;2.38;;
78610;SDS011;67932;50.474;4.436;2023-07-31T02:49:05;4.93;;;1.92;;
78610;SDS011;67932;50.474;4.436;2023-07-31T02:51:31;5.18;;;2.50;;
78610;SDS011;67932;50.474;4.436;2023-07-31T02:53:58;4.40;;;2.15;;
78610;SDS011;67932;50.474;4.436;2023-07-31T02:56:24;3.97;;;2.20;;
78610;SDS011;67932;50.474;4.436;2023-07-31T02:58:50;7.70;;;2.47;;
78610;SDS011;67932;50.474;4.436;2023-07-31T03:01:16;6.15;;;2.70;;
78610;SDS011;67932;50.474;4.436;2023-07-31T03:03:42;4.97;;;2.30;;
78610;SDS011;67932;50.474;4.436;2023-07-31T03:06:09;7.68;;;2.00;;
78610;SDS011;67932;50.474;4.436;2023-07-31T03:08:35;6.05;;;2.00;;
78610;SDS011;67932;50.474;4.436;2023-07-31T03:11:01;5.80;;;2.10;;
78610;SDS011;67932;50.474;4.436;2023-07-31T03:13:27;4.15;;;2.33;;
78610;SDS011;67932;50.474;4.436;2023-07-31T03:15:54;6.78;;;2.30;;
78610;SDS011;67932;50.474;4.436;2023-07-31T03:18:20;4.90;;;2.00;;
78610;SDS011;67932;50.474;4.436;2023-07-31T03:20:46;4.03;;;2.10;;
78610;SDS011;67932;50.474;4.436;2023-07-31T03:23:12;4.18;;;1.90;;
78610;SDS011;67932;50.474;4.436;2023-07-31T03:25:41;6.95;;;2.75;;
78610;SDS011;67932;50.474;4.436;2023-07-31T03:28:20;6.47;;;2.55;;
78610;SDS011;67932;50.474;4.436;2023-07-31T03:30:46;3.72;;;2.30;;
78610;SDS011;67932;50.474;4.436;2023-07-31T03:33:12;5.18;;;2.17;;
78610;SDS011;67932;50.474;4.436;2023-07-31T03:35:38;5.55;;;2.08;;
78610;SDS011;67932;50.474;4.436;2023-07-31T03:38:05;8.30;;;2.72;;
78610;SDS011;67932;50.474;4.436;2023-07-31T03:40:31;4.22;;;1.98;;
78610;SDS011;67932;50.474;4.436;2023-07-31T03:42:57;7.82;;;2.10;;
78610;SDS011;67932;50.474;4.436;2023-07-31T03:45:23;3.97;;;1.83;;
78610;SDS011;67932;50.474;4.436;2023-07-31T03:47:50;5.53;;;2.60;;
78610;SDS011;67932;50.474;4.436;2023-07-31T03:50:16;9.13;;;3.13;;
78610;SDS011;67932;50.474;4.436;2023-07-31T03:52:43;6.72;;;2.20;;
78610;SDS011;67932;50.474;4.436;2023-07-31T03:55:09;4.45;;;2.28;;
78610;SDS011;67932;50.474;4.436;2023-07-31T03:57:35;7.00;;;2.10;;
78610;SDS011;67932;50.474;4.436;2023-07-31T04:00:01;6.00;;;2.15;;
78610;SDS011;67932;50.474;4.436;2023-07-31T04:02:28;5.72;;;2.05;;
78610;SDS011;67932;50.474;4.436;2023-07-31T04:04:54;5.00;;;1.88;;
78610;SDS011;67932;50.474;4.436;2023-07-31T04:07:21;3.85;;;1.90;;
78610;SDS011;67932;50.474;4.436;2023-07-31T04:09:47;4.95;;;2.08;;
78610;SDS011;67932;50.474;4.436;2023-07-31T04:12:13;8.98;;;2.53;;
78610;SDS011;67932;50.474;4.436;2023-07-31T04:14:39;9.45;;;2.00;;
78610;SDS011;67932;50.474;4.436;2023-07-31T04:17:06;4.80;;;2.15;;
78610;SDS011;67932;50.474;4.436;2023-07-31T04:19:32;4.45;;;2.17;;
78610;SDS011;67932;50.474;4.436;2023-07-31T04:21:58;4.95;;;2.03;;
78610;SDS011;67932;50.474;4.436;2023-07-31T04:24:24;9.77;;;2.30;;
78610;SDS011;67932;50.474;4.436;2023-07-31T04:26:51;4.03;;;2.03;;
78610;SDS011;67932;50.474;4.436;2023-07-31T04:29:18;5.93;;;2.63;;
78610;SDS011;67932;50.474;4.436;2023-07-31T04:31:45;5.45;;;2.22;;
78610;SDS011;67932;50.474;4.436;2023-07-31T04:34:12;6.30;;;2.00;;
78610;SDS011;67932;50.474;4.436;2023-07-31T04:36:38;4.97;;;1.90;;
78610;SDS011;67932;50.474;4.436;2023-07-31T04:39:05;3.75;;;2.13;;
78610;SDS011;67932;50.474;4.436;2023-07-31T04:41:31;5.40;;;2.13;;
78610;SDS011;67932;50.474;4.436;2023-07-31T04:43:57;5.35;;;1.92;;
78610;SDS011;67932;50.474;4.436;2023-07-31T04:46:24;3.75;;;2.08;;
78610;SDS011;67932;50.474;4.436;2023-07-31T04:48:50;6.93;;;2.10;;
78610;SDS011;67932;50.474;4.436;2023-07-31T04:51:16;5.82;;;2.25;;
78610;SDS011;67932;50.474;4.436;2023-07-31T04:53:42;4.97;;;1.98;;
78610;SDS011;67932;50.474;4.436;2023-07-31T04:56:09;4.70;;;1.85;;
78610;SDS011;67932;50.474;4.436;2023-07-31T04:58:35;5.45;;;2.13;;
78610;SDS011;67932;50.474;4.436;2023-07-31T05:01:01;7.78;;;2.30;;
78610;SDS011;67932;50.474;4.436;2023-07-31T05:03:27;5.78;;;2.20;;
78610;SDS011;67932;50.474;4.436;2023-07-31T05:05:54;9.00;;;2.30;;
78610;SDS011;67932;50.474;4.436;2023-07-31T05:08:20;4.15;;;2.45;;
78610;SDS011;67932;50.474;4.436;2023-07-31T05:10:46;6.25;;;2.40;;
78610;SDS011;67932;50.474;4.436;2023-07-31T05:13:12;4.63;;;1.88;;
78610;SDS011;67932;50.474;4.436;2023-07-31T05:15:38;6.97;;;2.72;;
78610;SDS011;67932;50.474;4.436;2023-07-31T05:18:06;5.72;;;2.03;;
78610;SDS011;67932;50.474;4.436;2023-07-31T05:20:32;4.80;;;1.75;;
78610;SDS011;67932;50.474;4.436;2023-07-31T05:22:58;7.15;;;2.20;;
78610;SDS011;67932;50.474;4.436;2023-07-31T05:25:24;8.35;;;2.22;;
78610;SDS011;67932;50.474;4.436;2023-07-31T05:27:51;5.10;;;2.15;;
78610;SDS011;67932;50.474;4.436;2023-07-31T05:30:17;8.93;;;2.42;;
78610;SDS011;67932;50.474;4.436;2023-07-31T05:32:43;6.20;;;2.22;;
78610;SDS011;67932;50.474;4.436;2023-07-31T05:35:09;3.90;;;1.55;;
78610;SDS011;67932;50.474;4.436;2023-07-31T05:37:36;4.53;;;2.33;;
78610;SDS011;67932;50.474;4.436;2023-07-31T05:40:02;6.47;;;2.00;;
78610;SDS011;67932;50.474;4.436;2023-07-31T05:42:29;3.63;;;2.03;;
78610;SDS011;67932;50.474;4.436;2023-07-31T05:44:55;6.57;;;2.20;;
78610;SDS011;67932;50.474;4.436;2023-07-31T05:47:21;6.57;;;2.08;;
78610;SDS011;67932;50.474;4.436;2023-07-31T05:49:48;4.18;;;1.75;;
78610;SDS011;67932;50.474;4.436;2023-07-31T05:52:17;4.53;;;2.40;;
78610;SDS011;67932;50.474;4.436;2023-07-31T05:54:44;4.38;;;2.00;;
78610;SDS011;67932;50.474;4.436;2023-07-31T05:57:13;6.13;;;2.05;;
78610;SDS011;67932;50.474;4.436;2023-07-31T05:59:39;5.38;;;3.33;;
78610;SDS011;67932;50.474;4.436;2023-07-31T06:02:05;3.75;;;1.67;;
78610;SDS011;67932;50.474;4.436;2023-07-31T06:04:32;4.68;;;2.53;;
78610;SDS011;67932;50.474;4.436;2023-07-31T06:06:58;5.85;;;1.80;;
78610;SDS011;67932;50.474;4.436;2023-07-31T06:09:25;5.05;;;2.15;;
78610;SDS011;67932;50.474;4.436;2023-07-31T06:11:51;4.18;;;1.75;;
78610;SDS011;67932;50.474;4.436;2023-07-31T06:14:18;6.25;;;2.13;;
78610;SDS011;67932;50.474;4.436;2023-07-31T06:16:45;6.07;;;1.98;;
78610;SDS011;67932;50.474;4.436;2023-07-31T06:19:11;4.03;;;1.77;;
78610;SDS011;67932;50.474;4.436;2023-07-31T06:21:38;5.63;;;2.38;;
78610;SDS011;67932;50.474;4.436;2023-07-31T06:24:07;4.05;;;1.80;;
78610;SDS011;67932;50.474;4.436;2023-07-31T06:26:34;5.57;;;2.20;;
78610;SDS011;67932;50.474;4.436;2023-07-31T06:29:00;4.30;;;1.80;;
78610;SDS011;67932;50.474;4.436;2023-07-31T06:31:26;4.32;;;1.55;;
78610;SDS011;67932;50.474;4.436;2023-07-31T06:33:53;4.78;;;1.98;;
78610;SDS011;67932;50.474;4.436;2023-07-31T06:36:20;4.20;;;1.65;;
78610;SDS011;67932;50.474;4.436;2023-07-31T06:38:46;5.15;;;2.20;;
78610;SDS011;67932;50.474;4.436;2023-07-31T06:41:13;4.95;;;2.05;;
78610;SDS011;67932;50.474;4.436;2023-07-31T06:43:39;3.95;;;2.03;;
78610;SDS011;67932;50.474;4.436;2023-07-31T06:46:05;5.20;;;2.22;;
78610;SDS011;67932;50.474;4.436;2023-07-31T06:48:34;5.00;;;2.65;;
78610;SDS011;67932;50.474;4.436;2023-07-31T06:51:01;3.45;;;1.70;;
78610;SDS011;67932;50.474;4.436;2023-07-31T06:53:28;3.45;;;1.80;;
78610;SDS011;67932;50.474;4.436;2023-07-31T06:55:54;6.88;;;1.90;;
78610;SDS011;67932;50.474;4.436;2023-07-31T06:58:20;6.20;;;2.05;;
78610;SDS011;67932;50.474;4.436;2023-07-31T07:00:47;6.10;;;2.33;;
78610;SDS011;67932;50.474;4.436;2023-07-31T07:03:14;4.90;;;1.88;;
78610;SDS011;67932;50.474;4.436;2023-07-31T07:05:42;5.65;;;1.70;;
78610;SDS011;67932;50.474;4.436;2023-07-31T07:08:09;4.40;;;1.92;;
78610;SDS011;67932;50.474;4.436;2023-07-31T07:10:35;4.35;;;1.65;;
78610;SDS011;67932;50.474;4.436;2023-07-31T07:13:01;4.20;;;2.22;;
78610;SDS011;67932;50.474;4.436;2023-07-31T07:15:28;7.97;;;2.40;;
78610;SDS011;67932;50.474;4.436;2023-07-31T07:17:54;5.00;;;2.03;;
78610;SDS011;67932;50.474;4.436;2023-07-31T07:20:21;5.32;;;1.60;;
78610;SDS011;67932;50.474;4.436;2023-07-31T07:22:48;3.17;;;1.60;;
78610;SDS011;67932;50.474;4.436;2023-07-31T07:25:14;4.85;;;1.90;;
78610;SDS011;67932;50.474;4.436;2023-07-31T07:27:40;6.10;;;2.00;;
78610;SDS011;67932;50.474;4.436;2023-07-31T07:30:07;7.78;;;1.75;;
78610;SDS011;67932;50.474;4.436;2023-07-31T07:32:34;6.78;;;2.15;;
78610;SDS011;67932;50.474;4.436;2023-07-31T07:35:00;5.80;;;1.55;;
78610;SDS011;67932;50.474;4.436;2023-07-31T07:37:26;4.35;;;1.83;;
78610;SDS011;67932;50.474;4.436;2023-07-31T07:39:53;5.45;;;1.88;;
78610;SDS011;67932;50.474;4.436;2023-07-31T07:42:19;5.53;;;1.90;;
78610;SDS011;67932;50.474;4.436;2023-07-31T07:44:45;4.05;;;1.90;;
78610;SDS011;67932;50.474;4.436;2023-07-31T07:47:12;4.65;;;2.35;;
78610;SDS011;67932;50.474;4.436;2023-07-31T07:49:38;4.28;;;1.88;;
78610;SDS011;67932;50.474;4.436;2023-07-31T07:52:05;6.07;;;2.17;;
78610;SDS011;67932;50.474;4.436;2023-07-31T07:54:31;7.28;;;2.22;;
78610;SDS011;67932;50.474;4.436;2023-07-31T07:56:57;6.47;;;2.30;;
78610;SDS011;67932;50.474;4.436;2023-07-31T07:59:24;8.75;;;3.00;;
78610;SDS011;67932;50.474;4.436;2023-07-31T08:01:50;6.00;;;2.40;;
78610;SDS011;67932;50.474;4.436;2023-07-31T08:04:16;5.15;;;2.80;;
78610;SDS011;67932;50.474;4.436;2023-07-31T08:06:43;6.50;;;2.83;;
78610;SDS011;67932;50.474;4.436;2023-07-31T08:09:09;6.85;;;2.40;;
78610;SDS011;67932;50.474;4.436;2023-07-31T08:11:35;7.00;;;2.45;;
78610;SDS011;67932;50.474;4.436;2023-07-31T08:14:02;6.10;;;2.33;;
78610;SDS011;67932;50.474;4.436;2023-07-31T08:16:28;6.55;;;2.63;;
78610;SDS011;67932;50.474;4.436;2023-07-31T08:18:54;7.97;;;2.53;;
78610;SDS011;67932;50.474;4.436;2023-07-31T08:21:21;6.55;;;2.78;;
78610;SDS011;67932;50.474;4.436;2023-07-31T08:23:47;8.27;;;2.97;;
78610;SDS011;67932;50.474;4.436;2023-07-31T08:26:16;5.68;;;2.15;;
78610;SDS011;67932;50.474;4.436;2023-07-31T08:28:43;7.13;;;2.60;;
78610;SDS011;67932;50.474;4.436;2023-07-31T08:31:10;7.78;;;2.90;;
78610;SDS011;67932;50.474;4.436;2023-07-31T08:33:37;7.40;;;2.22;;
78610;SDS011;67932;50.474;4.436;2023-07-31T08:36:04;7.22;;;2.40;;
78610;SDS011;67932;50.474;4.436;2023-07-31T08:38:30;6.03;;;2.50;;
78610;SDS011;67932;50.474;4.436;2023-07-31T08:40:57;4.38;;;1.80;;
78610;SDS011;67932;50.474;4.436;2023-07-31T08:43:26;4.93;;;1.75;;
78610;SDS011;67932;50.474;4.436;2023-07-31T08:45:53;4.72;;;2.03;;
78610;SDS011;67932;50.474;4.436;2023-07-31T08:48:21;5.88;;;2.85;;
78610;SDS011;67932;50.474;4.436;2023-07-31T08:50:49;5.22;;;2.05;;
78610;SDS011;67932;50.474;4.436;2023-07-31T08:53:16;9.55;;;3.60;;
78610;SDS011;67932;50.474;4.436;2023-07-31T08:55:42;7.75;;;3.00;;
78610;SDS011;67932;50.474;4.436;2023-07-31T08:58:10;5.43;;;2.83;;
78610;SDS011;67932;50.474;4.436;2023-07-31T09:00:39;6.05;;;2.45;;
78610;SDS011;67932;50.474;4.436;2023-07-31T09:03:10;7.50;;;3.30;;
78610;SDS011;67932;50.474;4.436;2023-07-31T09:05:41;8.10;;;2.97;;
78610;SDS011;67932;50.474;4.436;2023-07-31T09:08:10;7.20;;;3.00;;
78610;SDS011;67932;50.474;4.436;2023-07-31T09:10:41;7.03;;;3.10;;
78610;SDS011;67932;50.474;4.436;2023-07-31T09:13:08;9.40;;;3.45;;
78610;SDS011;67932;50.474;4.436;2023-07-31T09:15:35;10.27;;;3.38;;
78610;SDS011;67932;50.474;4.436;2023-07-31T09:18:03;7.78;;;3.13;;
78610;SDS011;67932;50.474;4.436;2023-07-31T09:20:30;8.80;;;3.28;;
78610;SDS011;67932;50.474;4.436;2023-07-31T09:23:04;6.88;;;2.60;;
78610;SDS011;67932;50.474;4.436;2023-07-31T09:25:32;9.65;;;2.85;;
78610;SDS011;67932;50.474;4.436;2023-07-31T09:28:09;5.97;;;2.53;;
78610;SDS011;67932;50.474;4.436;2023-07-31T09:30:46;8.15;;;2.92;;
78610;SDS011;67932;50.474;4.436;2023-07-31T09:33:18;6.00;;;2.80;;
78610;SDS011;67932;50.474;4.436;2023-07-31T09:35:45;7.15;;;2.88;;
78610;SDS011;67932;50.474;4.436;2023-07-31T09:38:13;7.43;;;3.33;;
78610;SDS011;67932;50.474;4.436;2023-07-31T09:40:42;7.85;;;2.55;;
78610;SDS011;67932;50.474;4.436;2023-07-31T09:43:10;13.23;;;3.30;;
78610;SDS011;67932;50.474;4.436;2023-07-31T09:45:47;6.63;;;2.60;;
78610;SDS011;67932;50.474;4.436;2023-07-31T09:48:14;9.80;;;2.63;;
78610;SDS011;67932;50.474;4.436;2023-07-31T09:50:42;9.43;;;3.15;;
78610;SDS011;67932;50.474;4.436;2023-07-31T09:53:10;6.80;;;2.58;;
78610;SDS011;67932;50.474;4.436;2023-07-31T09:55:37;6.57;;;2.88;;
78610;SDS011;67932;50.474;4.436;2023-07-31T09:58:08;5.80;;;2.95;;
78610;SDS011;67932;50.474;4.436;2023-07-31T10:00:36;9.18;;;3.00;;
78610;SDS011;67932;50.474;4.436;2023-07-31T10:03:09;9.43;;;2.97;;
78610;SDS011;67932;50.474;4.436;2023-07-31T10:05:43;7.20;;;2.63;;
78610;SDS011;67932;50.474;4.436;2023-07-31T10:08:16;9.20;;;2.90;;
78610;SDS011;67932;50.474;4.436;2023-07-31T10:10:46;5.88;;;2.97;;
78610;SDS011;67932;50.474;4.436;2023-07-31T10:13:13;7.05;;;2.92;;
78610;SDS011;67932;50.474;4.436;2023-07-31T10:15:40;7.22;;;3.03;;
78610;SDS011;67932;50.474;4.436;2023-07-31T10:18:08;9.38;;;3.30;;
78610;SDS011;67932;50.474;4.436;2023-07-31T10:20:35;5.97;;;3.00;;
78610;SDS011;67932;50.474;4.436;2023-07-31T10:23:02;6.35;;;2.95;;
78610;SDS011;67932;50.474;4.436;2023-07-31T10:25:29;6.95;;;2.75;;
78610;SDS011;67932;50.474;4.436;2023-07-31T10:27:56;5.90;;;2.88;;
78610;SDS011;67932;50.474;4.436;2023-07-31T10:30:27;8.40;;;2.92;;
78610;SDS011;67932;50.474;4.436;2023-07-31T10:32:57;7.35;;;3.05;;
78610;SDS011;67932;50.474;4.436;2023-07-31T10:35:24;7.63;;;2.92;;
78610;SDS011;67932;50.474;4.436;2023-07-31T10:37:50;7.03;;;3.10;;
78610;SDS011;67932;50.474;4.436;2023-07-31T10:40:18;7.68;;;3.15;;
78610;SDS011;67932;50.474;4.436;2023-07-31T10:42:50;7.10;;;2.90;;
78610;SDS011;67932;50.474;4.436;2023-07-31T10:47:57;6.90;;;2.90;;
78610;SDS011;67932;50.474;4.436;2023-07-31T10:50:59;6.53;;;2.78;;
78610;SDS011;67932;50.474;4.436;2023-07-31T10:53:29;5.97;;;2.55;;
78610;SDS011;67932;50.474;4.436;2023-07-31T10:56:04;6.63;;;3.05;;
78610;SDS011;67932;50.474;4.436;2023-07-31T10:58:32;4.75;;;2.72;;
78610;SDS011;67932;50.474;4.436;2023-07-31T11:00:59;6.18;;;2.78;;
78610;SDS011;67932;50.474;4.436;2023-07-31T11:03:47;9.55;;;3.45;;
78610;SDS011;67932;50.474;4.436;2023-07-31T11:06:17;7.72;;;3.03;;
78610;SDS011;67932;50.474;4.436;2023-07-31T11:08:44;7.15;;;3.10;;
78610;SDS011;67932;50.474;4.436;2023-07-31T11:11:14;7.82;;;3.33;;
78610;SDS011;67932;50.474;4.436;2023-07-31T11:13:45;6.80;;;2.78;;
78610;SDS011;67932;50.474;4.436;2023-07-31T11:16:17;7.57;;;2.78;;
78610;SDS011;67932;50.474;4.436;2023-07-31T11:18:45;6.43;;;2.60;;
78610;SDS011;67932;50.474;4.436;2023-07-31T11:21:14;9.00;;;3.00;;
78610;SDS011;67932;50.474;4.436;2023-07-31T11:23:41;8.20;;;2.60;;
78610;SDS011;67932;50.474;4.436;2023-07-31T11:26:11;7.88;;;3.00;;
78610;SDS011;67932;50.474;4.436;2023-07-31T11:28:37;4.80;;;2.42;;
78610;SDS011;67932;50.474;4.436;2023-07-31T11:31:04;7.43;;;3.00;;
78610;SDS011;67932;50.474;4.436;2023-07-31T11:33:30;6.75;;;2.78;;
78610;SDS011;67932;50.474;4.436;2023-07-31T11:35:57;8.82;;;3.20;;
78610;SDS011;67932;50.474;4.436;2023-07-31T11:38:30;6.55;;;2.92;;
78610;SDS011;67932;50.474;4.436;2023-07-31T11:40:58;6.97;;;3.08;;
78610;SDS011;67932;50.474;4.436;2023-07-31T11:43:30;7.13;;;3.03;;
78610;SDS011;67932;50.474;4.436;2023-07-31T11:45:58;6.28;;;2.38;;
78610;SDS011;67932;50.474;4.436;2023-07-31T11:48:28;5.95;;;2.50;;
78610;SDS011;67932;50.474;4.436;2023-07-31T11:50:58;7.30;;;2.90;;
78610;SDS011;67932;50.474;4.436;2023-07-31T11:53:27;7.20;;;2.92;;
78610;SDS011;67932;50.474;4.436;2023-07-31T11:56:03;8.07;;;3.00;;
78610;SDS011;67932;50.474;4.436;2023-07-31T11:58:31;7.93;;;2.88;;
78610;SDS011;67932;50.474;4.436;2023-07-31T12:01:01;9.02;;;2.72;;
78610;SDS011;67932;50.474;4.436;2023-07-31T12:03:28;5.53;;;2.58;;
78610;SDS011;67932;50.474;4.436;2023-07-31T12:05:54;8.50;;;3.72;;
78610;SDS011;67932;50.474;4.436;2023-07-31T12:08:21;7.00;;;3.80;;
78610;SDS011;67932;50.474;4.436;2023-07-31T12:10:54;6.88;;;3.25;;
78610;SDS011;67932;50.474;4.436;2023-07-31T12:13:27;9.32;;;3.03;;
78610;SDS011;67932;50.474;4.436;2023-07-31T12:15:54;8.70;;;3.00;;
78610;SDS011;67932;50.474;4.436;2023-07-31T12:18:25;6.03;;;2.85;;
78610;SDS011;67932;50.474;4.436;2023-07-31T12:20:56;7.28;;;3.03;;
78610;SDS011;67932;50.474;4.436;2023-07-31T12:23:25;8.27;;;3.00;;
78610;SDS011;67932;50.474;4.436;2023-07-31T12:26:06;7.15;;;3.30;;
78610;SDS011;67932;50.474;4.436;2023-07-31T12:28:37;9.27;;;2.83;;
78610;SDS011;67932;50.474;4.436;2023-07-31T12:31:17;8.50;;;3.10;;
78610;SDS011;67932;50.474;4.436;2023-07-31T12:33:46;6.88;;;2.90;;
78610;SDS011;67932;50.474;4.436;2023-07-31T12:36:21;8.70;;;3.30;;
78610;SDS011;67932;50.474;4.436;2023-07-31T12:38:49;6.75;;;2.95;;
78610;SDS011;67932;50.474;4.436;2023-07-31T12:41:16;8.77;;;3.40;;
78610;SDS011;67932;50.474;4.436;2023-07-31T12:43:43;11.02;;;4.13;;
78610;SDS011;67932;50.474;4.436;2023-07-31T12:46:10;9.57;;;3.97;;
78610;SDS011;67932;50.474;4.436;2023-07-31T12:48:38;9.23;;;3.80;;
78610;SDS011;67932;50.474;4.436;2023-07-31T12:51:05;6.97;;;3.80;;
78610;SDS011;67932;50.474;4.436;2023-07-31T12:53:32;10.30;;;3.95;;
78610;SDS011;67932;50.474;4.436;2023-07-31T12:55:58;9.38;;;4.20;;
78610;SDS011;67932;50.474;4.436;2023-07-31T12:58:25;8.90;;;3.53;;
78610;SDS011;67932;50.474;4.436;2023-07-31T13:00:51;7.40;;;3.42;;
78610;SDS011;67932;50.474;4.436;2023-07-31T13:03:17;6.70;;;2.22;;
78610;SDS011;67932;50.474;4.436;2023-07-31T13:05:44;6.53;;;1.85;;
78610;SDS011;67932;50.474;4.436;2023-07-31T13:08:10;3.40;;;2.22;;
78610;SDS011;67932;50.474;4.436;2023-07-31T13:10:37;9.73;;;3.22;;
78610;SDS011;67932;50.474;4.436;2023-07-31T13:13:03;5.40;;;2.25;;
78610;SDS011;67932;50.474;4.436;2023-07-31T13:15:29;4.68;;;2.50;;
78610;SDS011;67932;50.474;4.436;2023-07-31T13:17:55;9.45;;;2.50;;
78610;SDS011;67932;50.474;4.436;2023-07-31T13:20:22;5.93;;;2.60;;
78610;SDS011;67932;50.474;4.436;2023-07-31T13:22:48;4.82;;;2.13;;
78610;SDS011;67932;50.474;4.436;2023-07-31T13:25:14;7.05;;;3.05;;
78610;SDS011;67932;50.474;4.436;2023-07-31T13:27:40;8.25;;;2.58;;
78610;SDS011;67932;50.474;4.436;2023-07-31T13:30:07;4.93;;;2.42;;
78610;SDS011;67932;50.474;4.436;2023-07-31T13:32:33;7.65;;;2.50;;
78610;SDS011;67932;50.474;4.436;2023-07-31T13:35:04;4.28;;;2.20;;
78610;SDS011;67932;50.474;4.436;2023-07-31T13:37:31;5.57;;;2.30;;
78610;SDS011;67932;50.474;4.436;2023-07-31T13:39:57;8.07;;;2.50;;
78610;SDS011;67932;50.474;4.436;2023-07-31T13:42:23;9.38;;;3.00;;
78610;SDS011;67932;50.474;4.436;2023-07-31T13:44:49;6.35;;;2.78;;
78610;SDS011;67932;50.474;4.436;2023-07-31T13:47:15;6.63;;;2.90;;
78610;SDS011;67932;50.474;4.436;2023-07-31T13:49:42;8.80;;;3.20;;
78610;SDS011;67932;50.474;4.436;2023-07-31T13:52:08;6.15;;;2.88;;
78610;SDS011;67932;50.474;4.436;2023-07-31T13:54:34;7.03;;;2.85;;
78610;SDS011;67932;50.474;4.436;2023-07-31T13:57:01;8.45;;;3.17;;
78610;SDS011;67932;50.474;4.436;2023-07-31T13:59:27;8.10;;;2.63;;
78610;SDS011;67932;50.474;4.436;2023-07-31T14:01:53;6.18;;;3.40;;
78610;SDS011;67932;50.474;4.436;2023-07-31T14:04:19;5.15;;;2.63;;
78610;SDS011;67932;50.474;4.436;2023-07-31T14:06:46;5.82;;;2.53;;
78610;SDS011;67932;50.474;4.436;2023-07-31T14:09:13;6.82;;;3.03;;
78610;SDS011;67932;50.474;4.436;2023-07-31T14:11:40;5.43;;;2.55;;
78610;SDS011;67932;50.474;4.436;2023-07-31T14:14:06;5.22;;;2.47;;
78610;SDS011;67932;50.474;4.436;2023-07-31T14:16:33;3.55;;;2.10;;
78610;SDS011;67932;50.474;4.436;2023-07-31T14:19:00;5.18;;;2.28;;
78610;SDS011;67932;50.474;4.436;2023-07-31T14:21:26;6.75;;;2.40;;
78610;SDS011;67932;50.474;4.436;2023-07-31T14:23:52;6.30;;;2.30;;
78610;SDS011;67932;50.474;4.436;2023-07-31T14:26:18;5.40;;;2.55;;
78610;SDS011;67932;50.474;4.436;2023-07-31T14:28:45;3.75;;;2.10;;
78610;SDS011;67932;50.474;4.436;2023-07-31T14:31:11;4.15;;;2.30;;
78610;SDS011;67932;50.474;4.436;2023-07-31T14:33:37;4.15;;;2.10;;
78610;SDS011;67932;50.474;4.436;2023-07-31T14:36:03;4.10;;;1.52;;
78610;SDS011;67932;50.474;4.436;2023-07-31T14:38:30;5.60;;;2.30;;
78610;SDS011;67932;50.474;4.436;2023-07-31T14:40:56;5.25;;;2.08;;
78610;SDS011;67932;50.474;4.436;2023-07-31T14:43:22;3.83;;;2.10;;
78610;SDS011;67932;50.474;4.436;2023-07-31T14:45:48;4.50;;;2.67;;
78610;SDS011;67932;50.474;4.436;2023-07-31T14:48:15;5.70;;;3.10;;
78610;SDS011;67932;50.474;4.436;2023-07-31T14:50:41;4.10;;;2.10;;
78610;SDS011;67932;50.474;4.436;2023-07-31T14:53:07;5.07;;;2.63;;
78610;SDS011;67932;50.474;4.436;2023-07-31T14:55:34;6.97;;;3.30;;
78610;SDS011;67932;50.474;4.436;2023-07-31T14:58:00;6.65;;;2.55;;
78610;SDS011;67932;50.474;4.436;2023-07-31T15:00:27;6.32;;;2.60;;